sensor_id;sensor_type;location;lat;lon;timestamp;pressure;altitude;pressure_sealevel;temperature;humidity
51460;BME280;37534;39.772;2.718;2023-01-27T00:01:40;101081.31;;;1.86;100.00
51460;BME280;37534;39.772;2.718;2023-01-27T00:04:06;101076.09;;;1.77;100.00
51460;BME280;37534;39.772;2.718;2023-01-27T00:06:31;101072.66;;;1.75;100.00
51460;BME280;37534;39.772;2.718;2023-01-27T00:08:57;101079.78;;;1.96;100.00
51460;BME280;37534;39.772;2.718;2023-01-27T00:11:22;101074.69;;;1.96;100.00
51460;BME280;37534;39.772;2.718;2023-01-27T00:14:06;101073.88;;;1.98;100.00
51460;BME280;37534;39.772;2.718;2023-01-27T00:16:32;101070.66;;;2.10;100.00
51460;BME280;37534;39.772;2.718;2023-01-27T00:18:57;101068.88;;;2.04;100.00
51460;BME280;37534;39.772;2.718;2023-01-27T00:21:23;101060.22;;;1.93;100.00
51460;BME280;37534;39.772;2.718;2023-01-27T00:24:11;101063.50;;;1.86;100.00
51460;BME280;37534;39.772;2.718;2023-01-27T00:26:55;101053.13;;;1.74;100.00
51460;BME280;37534;39.772;2.718;2023-01-27T00:29:20;101046.44;;;1.79;100.00
51460;BME280;37534;39.772;2.718;2023-01-27T00:31:46;101067.84;;;1.93;100.00
51460;BME280;37534;39.772;2.718;2023-01-27T00:34:30;101052.88;;;2.12;100.00
51460;BME280;37534;39.772;2.718;2023-01-27T00:36:55;101056.38;;;2.21;100.00
51460;BME280;37534;39.772;2.718;2023-01-27T00:39:21;101052.19;;;2.25;100.00
51460;BME280;37534;39.772;2.718;2023-01-27T00:41:46;101057.97;;;2.15;100.00
51460;BME280;37534;39.772;2.718;2023-01-27T00:44:12;101052.63;;;1.96;100.00
51460;BME280;37534;39.772;2.718;2023-01-27T00:46:37;101050.75;;;1.84;100.00
51460;BME280;37534;39.772;2.718;2023-01-27T00:49:03;101050.63;;;1.75;100.00
51460;BME280;37534;39.772;2.718;2023-01-27T00:51:29;101044.06;;;1.91;100.00
51460;BME280;37534;39.772;2.718;2023-01-27T00:53:55;101040.09;;;2.08;100.00
51460;BME280;37534;39.772;2.718;2023-01-27T00:56:20;101044.47;;;2.19;100.00
51460;BME280;37534;39.772;2.718;2023-01-27T00:58:46;101022.13;;;1.98;100.00
51460;BME280;37534;39.772;2.718;2023-01-27T01:01:13;101037.28;;;1.92;100.00
51460;BME280;37534;39.772;2.718;2023-01-27T01:03:40;101041.47;;;1.88;100.00
51460;BME280;37534;39.772;2.718;2023-01-27T01:06:08;101031.13;;;1.76;100.00
51460;BME280;37534;39.772;2.718;2023-01-27T01:08:36;101036.19;;;1.73;100.00
51460;BME280;37534;39.772;2.718;2023-01-27T01:11:02;101031.97;;;1.75;100.00
51460;BME280;37534;39.772;2.718;2023-01-27T01:13:28;101028.56;;;1.73;100.00
51460;BME280;37534;39.772;2.718;2023-01-27T01:15:54;101034.41;;;1.68;100.00
51460;BME280;37534;39.772;2.718;2023-01-27T01:18:20;101036.00;;;1.63;100.00
51460;BME280;37534;39.772;2.718;2023-01-27T01:20:46;101036.19;;;1.76;100.00
51460;BME280;37534;39.772;2.718;2023-01-27T01:23:12;101027.75;;;1.77;100.00
51460;BME280;37534;39.772;2.718;2023-01-27T01:25:38;101031.09;;;1.73;100.00
51460;BME280;37534;39.772;2.718;2023-01-27T01:28:06;101029.28;;;1.65;100.00
51460;BME280;37534;39.772;2.718;2023-01-27T01:30:35;101030.09;;;1.64;100.00
51460;BME280;37534;39.772;2.718;2023-01-27T01:33:02;101024.28;;;1.71;100.00
51460;BME280;37534;39.772;2.718;2023-01-27T01:35:28;101029.44;;;1.75;100.00
51460;BME280;37534;39.772;2.718;2023-01-27T01:37:53;101019.91;;;1.63;100.00
51460;BME280;37534;39.772;2.718;2023-01-27T01:40:20;101029.19;;;1.59;100.00
51460;BME280;37534;39.772;2.718;2023-01-27T01:48:09;101020.97;;;1.77;100.00
51460;BME280;37534;39.772;2.718;2023-01-27T01:50:39;101014.19;;;1.76;100.00
51460;BME280;37534;39.772;2.718;2023-01-27T01:53:09;101015.72;;;1.66;100.00
51460;BME280;37534;39.772;2.718;2023-01-27T01:55:36;101017.31;;;1.58;100.00
51460;BME280;37534;39.772;2.718;2023-01-27T01:58:06;101018.06;;;1.54;100.00
51460;BME280;37534;39.772;2.718;2023-01-27T02:00:33;101018.09;;;1.56;100.00
51460;BME280;37534;39.772;2.718;2023-01-27T02:03:00;101019.88;;;1.61;100.00
51460;BME280;37534;39.772;2.718;2023-01-27T02:05:29;101016.00;;;1.85;100.00
51460;BME280;37534;39.772;2.718;2023-01-27T02:08:13;101013.47;;;1.85;100.00
51460;BME280;37534;39.772;2.718;2023-01-27T02:10:41;101006.72;;;1.87;100.00
51460;BME280;37534;39.772;2.718;2023-01-27T02:13:07;101003.47;;;1.99;100.00
51460;BME280;37534;39.772;2.718;2023-01-27T02:15:33;101007.81;;;2.07;100.00
51460;BME280;37534;39.772;2.718;2023-01-27T02:17:59;101012.34;;;2.28;100.00
51460;BME280;37534;39.772;2.718;2023-01-27T02:20:47;101012.31;;;2.27;100.00
51460;BME280;37534;39.772;2.718;2023-01-27T02:26:32;101009.88;;;2.36;100.00
51460;BME280;37534;39.772;2.718;2023-01-27T02:29:05;101005.72;;;2.43;100.00
51460;BME280;37534;39.772;2.718;2023-01-27T02:31:31;101011.03;;;2.60;100.00
51460;BME280;37534;39.772;2.718;2023-01-27T02:34:00;101007.78;;;2.73;100.00
51460;BME280;37534;39.772;2.718;2023-01-27T02:36:28;101015.47;;;2.76;100.00
51460;BME280;37534;39.772;2.718;2023-01-27T02:38:56;101008.66;;;2.77;100.00
51460;BME280;37534;39.772;2.718;2023-01-27T02:41:28;101023.19;;;2.85;100.00
51460;BME280;37534;39.772;2.718;2023-01-27T02:43:56;100990.16;;;2.95;100.00
51460;BME280;37534;39.772;2.718;2023-01-27T02:46:22;100996.31;;;3.17;100.00
51460;BME280;37534;39.772;2.718;2023-01-27T02:48:47;100993.78;;;3.17;100.00
51460;BME280;37534;39.772;2.718;2023-01-27T02:51:13;100987.78;;;3.12;100.00
51460;BME280;37534;39.772;2.718;2023-01-27T02:53:39;100998.09;;;3.24;100.00
51460;BME280;37534;39.772;2.718;2023-01-27T02:56:05;100976.91;;;3.33;100.00
51460;BME280;37534;39.772;2.718;2023-01-27T02:58:30;100976.13;;;3.41;100.00
51460;BME280;37534;39.772;2.718;2023-01-27T03:00:56;100973.59;;;3.46;100.00
51460;BME280;37534;39.772;2.718;2023-01-27T03:03:21;100969.38;;;3.51;100.00
51460;BME280;37534;39.772;2.718;2023-01-27T03:05:47;100980.50;;;3.58;100.00
51460;BME280;37534;39.772;2.718;2023-01-27T03:08:15;100955.75;;;3.48;100.00
51460;BME280;37534;39.772;2.718;2023-01-27T03:10:41;100954.84;;;3.41;100.00
51460;BME280;37534;39.772;2.718;2023-01-27T03:13:06;100963.50;;;3.61;100.00
51460;BME280;37534;39.772;2.718;2023-01-27T03:15:32;100975.44;;;3.67;100.00
51460;BME280;37534;39.772;2.718;2023-01-27T03:18:16;100978.72;;;3.49;100.00
51460;BME280;37534;39.772;2.718;2023-01-27T03:20:44;100971.13;;;3.55;100.00
51460;BME280;37534;39.772;2.718;2023-01-27T03:23:11;100969.50;;;3.67;100.00
51460;BME280;37534;39.772;2.718;2023-01-27T03:25:43;100966.00;;;3.52;100.00
51460;BME280;37534;39.772;2.718;2023-01-27T03:28:10;100973.63;;;3.49;100.00
51460;BME280;37534;39.772;2.718;2023-01-27T03:30:36;100973.59;;;3.46;100.00
51460;BME280;37534;39.772;2.718;2023-01-27T03:33:02;100969.38;;;3.45;100.00
51460;BME280;37534;39.772;2.718;2023-01-27T03:35:30;100968.50;;;3.43;100.00
51460;BME280;37534;39.772;2.718;2023-01-27T03:38:01;100971.13;;;3.58;100.00
51460;BME280;37534;39.772;2.718;2023-01-27T03:40:45;100968.56;;;3.57;100.00
51460;BME280;37534;39.772;2.718;2023-01-27T03:43:29;100966.84;;;3.51;100.00
51460;BME280;37534;39.772;2.718;2023-01-27T03:46:13;100982.19;;;3.54;100.00
51460;BME280;37534;39.772;2.718;2023-01-27T03:48:39;100967.72;;;3.52;100.00
51460;BME280;37534;39.772;2.718;2023-01-27T03:51:06;100961.75;;;3.54;100.00
51460;BME280;37534;39.772;2.718;2023-01-27T03:53:33;100973.81;;;3.80;100.00
51460;BME280;37534;39.772;2.718;2023-01-27T03:55:59;100972.09;;;3.73;100.00
51460;BME280;37534;39.772;2.718;2023-01-27T03:58:27;100966.97;;;3.73;100.00
51460;BME280;37534;39.772;2.718;2023-01-27T04:01:00;100954.22;;;3.74;100.00
51460;BME280;37534;39.772;2.718;2023-01-27T04:03:29;100960.97;;;3.61;100.00
51460;BME280;37534;39.772;2.718;2023-01-27T04:06:35;100959.34;;;3.76;100.00
51460;BME280;37534;39.772;2.718;2023-01-27T04:11:45;100955.09;;;3.75;100.00
51460;BME280;37534;39.772;2.718;2023-01-27T04:14:30;100955.06;;;3.69;100.00
51460;BME280;37534;39.772;2.718;2023-01-27T04:17:01;100955.91;;;3.66;100.00
51460;BME280;37534;39.772;2.718;2023-01-27T04:19:27;100949.09;;;3.68;100.00
51460;BME280;37534;39.772;2.718;2023-01-27T04:21:53;100949.09;;;3.68;100.00
51460;BME280;37534;39.772;2.718;2023-01-27T04:24:20;100936.31;;;3.64;100.00
51460;BME280;37534;39.772;2.718;2023-01-27T04:26:51;100949.94;;;3.69;100.00
51460;BME280;37534;39.772;2.718;2023-01-27T04:29:18;100938.03;;;3.66;100.00
51460;BME280;37534;39.772;2.718;2023-01-27T04:31:44;100947.44;;;3.73;100.00
51460;BME280;37534;39.772;2.718;2023-01-27T04:34:10;100950.00;;;3.78;100.00
51460;BME280;37534;39.772;2.718;2023-01-27T04:36:36;100944.91;;;3.78;100.00
51460;BME280;37534;39.772;2.718;2023-01-27T04:39:02;100942.34;;;3.73;100.00
51460;BME280;37534;39.772;2.718;2023-01-27T04:41:27;100944.88;;;3.72;100.00
51460;BME280;37534;39.772;2.718;2023-01-27T04:43:53;100950.78;;;3.68;100.00
51460;BME280;37534;39.772;2.718;2023-01-27T04:46:19;100942.25;;;3.59;100.00
51460;BME280;37534;39.772;2.718;2023-01-27T04:48:44;100960.13;;;3.61;100.00
51460;BME280;37534;39.772;2.718;2023-01-27T04:51:09;100955.88;;;3.68;100.00
51460;BME280;37534;39.772;2.718;2023-01-27T04:53:35;100958.59;;;3.92;100.00
51460;BME280;37534;39.772;2.718;2023-01-27T04:56:10;100960.38;;;4.09;100.00
51460;BME280;37534;39.772;2.718;2023-01-27T04:58:39;100960.38;;;4.07;100.00
51460;BME280;37534;39.772;2.718;2023-01-27T05:01:05;100968.03;;;4.06;100.00
51460;BME280;37534;39.772;2.718;2023-01-27T05:03:30;100964.59;;;4.02;100.00
51460;BME280;37534;39.772;2.718;2023-01-27T05:05:56;100967.19;;;4.10;100.00
51460;BME280;37534;39.772;2.718;2023-01-27T05:08:21;100970.63;;;4.15;100.00
51460;BME280;37534;39.772;2.718;2023-01-27T05:10:47;100968.03;;;4.06;100.00
51460;BME280;37534;39.772;2.718;2023-01-27T05:13:12;100972.28;;;4.05;100.00
51460;BME280;37534;39.772;2.718;2023-01-27T05:15:38;100969.75;;;4.05;100.00
51460;BME280;37534;39.772;2.718;2023-01-27T05:18:04;100976.56;;;4.09;100.00
51460;BME280;37534;39.772;2.718;2023-01-27T05:20:29;100958.72;;;4.26;100.00
51460;BME280;37534;39.772;2.718;2023-01-27T05:22:56;100960.47;;;4.30;100.00
51460;BME280;37534;39.772;2.718;2023-01-27T05:25:44;100962.13;;;4.17;100.00
51460;BME280;37534;39.772;2.718;2023-01-27T05:28:10;100948.47;;;4.14;100.00
51460;BME280;37534;39.772;2.718;2023-01-27T05:30:36;100933.22;;;4.29;100.00
51460;BME280;37534;39.772;2.718;2023-01-27T05:33:02;100921.28;;;4.25;100.00
51460;BME280;37534;39.772;2.718;2023-01-27T05:35:28;100924.63;;;4.12;100.00
51460;BME280;37534;39.772;2.718;2023-01-27T05:37:56;100936.50;;;4.00;100.00
51460;BME280;37534;39.772;2.718;2023-01-27T05:40:22;100935.59;;;3.86;100.00
51460;BME280;37534;39.772;2.718;2023-01-27T05:42:50;100927.91;;;3.77;100.00
51460;BME280;37534;39.772;2.718;2023-01-27T05:45:16;100922.75;;;3.71;100.00
51460;BME280;37534;39.772;2.718;2023-01-27T05:47:41;100921.88;;;3.67;100.00
51460;BME280;37534;39.772;2.718;2023-01-27T05:50:07;100933.78;;;3.67;100.00
51460;BME280;37534;39.772;2.718;2023-01-27T05:52:33;100934.63;;;3.67;100.00
51460;BME280;37534;39.772;2.718;2023-01-27T05:54:58;100941.47;;;3.76;100.00
51460;BME280;37534;39.772;2.718;2023-01-27T05:57:24;100940.56;;;3.68;100.00
51460;BME280;37534;39.772;2.718;2023-01-27T05:59:49;100940.50;;;3.52;100.00
51460;BME280;37534;39.772;2.718;2023-01-27T06:02:15;100937.13;;;3.56;100.00
51460;BME280;37534;39.772;2.718;2023-01-27T06:04:40;100932.78;;;3.43;100.00
51460;BME280;37534;39.772;2.718;2023-01-27T06:07:06;100941.28;;;3.42;100.00
51460;BME280;37534;39.772;2.718;2023-01-27T06:09:31;100939.63;;;3.50;100.00
51460;BME280;37534;39.772;2.718;2023-01-27T06:11:57;100939.66;;;3.56;100.00
51460;BME280;37534;39.772;2.718;2023-01-27T06:14:22;100941.41;;;3.64;100.00
51460;BME280;37534;39.772;2.718;2023-01-27T06:16:48;100944.81;;;3.64;100.00
51460;BME280;37534;39.772;2.718;2023-01-27T06:19:14;100930.34;;;3.60;100.00
51460;BME280;37534;39.772;2.718;2023-01-27T06:21:39;100943.94;;;3.60;100.00
51460;BME280;37534;39.772;2.718;2023-01-27T06:24:05;100943.03;;;3.52;100.00
51460;BME280;37534;39.772;2.718;2023-01-27T06:26:31;100944.81;;;3.66;100.00
51460;BME280;37534;39.772;2.718;2023-01-27T06:28:56;100951.50;;;3.48;100.00
51460;BME280;37534;39.772;2.718;2023-01-27T06:31:22;100939.50;;;3.32;100.00
51460;BME280;37534;39.772;2.718;2023-01-27T06:33:49;100949.69;;;3.29;100.00
51460;BME280;37534;39.772;2.718;2023-01-27T06:36:17;100953.09;;;3.34;100.00
51460;BME280;37534;39.772;2.718;2023-01-27T06:38:43;100951.41;;;3.33;100.00
51460;BME280;37534;39.772;2.718;2023-01-27T06:41:09;100951.41;;;3.33;100.00
51460;BME280;37534;39.772;2.718;2023-01-27T06:43:35;100948.88;;;3.37;100.00
51460;BME280;37534;39.772;2.718;2023-01-27T06:46:01;100947.25;;;3.46;100.00
51460;BME280;37534;39.772;2.718;2023-01-27T06:48:27;100931.81;;;3.30;100.00
51460;BME280;37534;39.772;2.718;2023-01-27T06:50:53;100951.44;;;3.39;100.00
51460;BME280;37534;39.772;2.718;2023-01-27T06:53:19;100945.47;;;3.37;100.00
51460;BME280;37534;39.772;2.718;2023-01-27T06:55:45;100953.25;;;3.51;100.00
51460;BME280;37534;39.772;2.718;2023-01-27T06:58:11;100952.50;;;3.70;100.00
51460;BME280;37534;39.772;2.718;2023-01-27T07:00:38;100955.09;;;3.75;100.00
51460;BME280;37534;39.772;2.718;2023-01-27T07:03:04;100953.47;;;3.86;100.00
51460;BME280;37534;39.772;2.718;2023-01-27T07:05:30;100958.50;;;3.75;100.00
51460;BME280;37534;39.772;2.718;2023-01-27T07:07:56;100963.56;;;3.71;100.00
51460;BME280;37534;39.772;2.718;2023-01-27T07:10:22;100963.56;;;3.69;100.00
51460;BME280;37534;39.772;2.718;2023-01-27T07:12:47;100968.69;;;3.72;100.00
51460;BME280;37534;39.772;2.718;2023-01-27T07:15:13;100964.44;;;3.74;100.00
51460;BME280;37534;39.772;2.718;2023-01-27T07:17:39;100977.25;;;3.85;100.00
51460;BME280;37534;39.772;2.718;2023-01-27T07:20:07;100974.75;;;3.91;100.00
51460;BME280;37534;39.772;2.718;2023-01-27T07:22:34;100984.19;;;4.02;100.00
51460;BME280;37534;39.772;2.718;2023-01-27T07:25:00;100976.53;;;4.08;100.00
51460;BME280;37534;39.772;2.718;2023-01-27T07:27:25;100974.91;;;4.17;100.00
51460;BME280;37534;39.772;2.718;2023-01-27T07:29:51;100982.53;;;4.19;100.00
51460;BME280;37534;39.772;2.718;2023-01-27T07:32:16;100982.50;;;4.10;100.00
51460;BME280;37534;39.772;2.718;2023-01-27T07:34:42;100987.63;;;4.10;100.00
51460;BME280;37534;39.772;2.718;2023-01-27T07:37:08;100993.56;;;4.12;100.00
51460;BME280;37534;39.772;2.718;2023-01-27T07:39:35;100996.19;;;4.18;100.00
51460;BME280;37534;39.772;2.718;2023-01-27T07:42:02;101001.31;;;4.24;100.00
51460;BME280;37534;39.772;2.718;2023-01-27T07:44:28;101006.47;;;4.36;100.00
51460;BME280;37534;39.772;2.718;2023-01-27T07:46:54;100992.88;;;4.45;100.00
51460;BME280;37534;39.772;2.718;2023-01-27T07:49:19;101002.28;;;4.55;100.00
51460;BME280;37534;39.772;2.718;2023-01-27T07:51:45;101007.44;;;4.68;100.00
51460;BME280;37534;39.772;2.718;2023-01-27T07:54:11;100998.03;;;4.56;100.00
51460;BME280;37534;39.772;2.718;2023-01-27T07:56:37;101001.44;;;4.58;100.00
51460;BME280;37534;39.772;2.718;2023-01-27T07:59:03;101004.84;;;4.63;100.00
51460;BME280;37534;39.772;2.718;2023-01-27T08:01:29;101004.00;;;4.60;100.00
51460;BME280;37534;39.772;2.718;2023-01-27T08:03:54;101011.72;;;4.67;100.00
51460;BME280;37534;39.772;2.718;2023-01-27T08:06:20;101013.41;;;4.71;100.00
51460;BME280;37534;39.772;2.718;2023-01-27T08:08:45;101019.41;;;4.81;100.00
51460;BME280;37534;39.772;2.718;2023-01-27T08:11:12;101022.00;;;4.90;100.00
51460;BME280;37534;39.772;2.718;2023-01-27T08:13:38;101005.81;;;4.96;100.00
51460;BME280;37534;39.772;2.718;2023-01-27T08:16:06;101021.16;;;5.13;100.00
51460;BME280;37534;39.772;2.718;2023-01-27T08:18:33;101013.47;;;5.11;100.00
51460;BME280;37534;39.772;2.718;2023-01-27T08:21:00;101028.00;;;5.22;100.00
51460;BME280;37534;39.772;2.718;2023-01-27T08:23:26;101031.41;;;5.22;100.00
51460;BME280;37534;39.772;2.718;2023-01-27T08:25:53;101022.03;;;5.13;100.00
51460;BME280;37534;39.772;2.718;2023-01-27T08:28:20;101030.56;;;5.34;100.00
51460;BME280;37534;39.772;2.718;2023-01-27T08:30:46;101016.06;;;5.25;100.00
51460;BME280;37534;39.772;2.718;2023-01-27T08:33:12;101027.16;;;5.29;100.00
51460;BME280;37534;39.772;2.718;2023-01-27T08:35:38;101034.00;;;5.30;100.00
51460;BME280;37534;39.772;2.718;2023-01-27T08:38:07;101039.09;;;5.36;100.00
51460;BME280;37534;39.772;2.718;2023-01-27T08:40:33;101050.19;;;5.41;100.00
51460;BME280;37534;39.772;2.718;2023-01-27T08:42:59;101040.81;;;5.37;100.00
51460;BME280;37534;39.772;2.718;2023-01-27T08:45:26;101051.91;;;5.42;100.00
51460;BME280;37534;39.772;2.718;2023-01-27T08:47:52;101060.44;;;5.43;100.00
51460;BME280;37534;39.772;2.718;2023-01-27T08:50:18;101053.63;;;5.51;100.00
51460;BME280;37534;39.772;2.718;2023-01-27T08:52:43;101050.22;;;5.67;100.00
51460;BME280;37534;39.772;2.718;2023-01-27T08:55:09;101057.03;;;5.79;100.00
51460;BME280;37534;39.772;2.718;2023-01-27T08:57:35;101046.78;;;5.79;100.00
51460;BME280;37534;39.772;2.718;2023-01-27T09:00:02;101042.53;;;5.81;100.00
51460;BME280;37534;39.772;2.718;2023-01-27T09:02:28;101035.69;;;5.77;100.00
51460;BME280;37534;39.772;2.718;2023-01-27T09:04:54;101042.53;;;5.66;100.00
51460;BME280;37534;39.772;2.718;2023-01-27T09:07:19;101043.38;;;5.69;100.00
51460;BME280;37534;39.772;2.718;2023-01-27T09:09:46;101055.28;;;5.84;100.00
51460;BME280;37534;39.772;2.718;2023-01-27T09:12:12;101054.47;;;5.92;100.00
51460;BME280;37534;39.772;2.718;2023-01-27T09:14:37;101037.38;;;5.92;100.00
51460;BME280;37534;39.772;2.718;2023-01-27T09:17:04;101051.06;;;6.08;100.00
51460;BME280;37534;39.772;2.718;2023-01-27T09:19:30;101059.56;;;6.22;100.00
51460;BME280;37534;39.772;2.718;2023-01-27T09:21:55;101063.78;;;6.34;100.00
51460;BME280;37534;39.772;2.718;2023-01-27T09:24:21;101066.34;;;6.43;100.00
51460;BME280;37534;39.772;2.718;2023-01-27T09:26:47;101074.81;;;6.56;100.00
51460;BME280;37534;39.772;2.718;2023-01-27T09:29:12;101071.38;;;6.63;100.00
51460;BME280;37534;39.772;2.718;2023-01-27T09:31:38;101073.94;;;6.68;100.00
51460;BME280;37534;39.772;2.718;2023-01-27T09:34:03;101059.41;;;6.65;100.00
51460;BME280;37534;39.772;2.718;2023-01-27T09:36:31;101076.47;;;6.77;100.00
51460;BME280;37534;39.772;2.718;2023-01-27T09:39:03;101076.34;;;6.94;100.00
51460;BME280;37534;39.772;2.718;2023-01-27T09:41:52;101083.13;;;7.09;100.00
51460;BME280;37534;39.772;2.718;2023-01-27T09:58:48;101094.78;;;7.58;100.00
51460;BME280;37534;39.772;2.718;2023-01-27T10:26:00;101107.88;;;8.28;100.00
51460;BME280;37534;39.772;2.718;2023-01-27T10:28:22;101105.16;;;8.40;100.00
51460;BME280;37534;39.772;2.718;2023-01-27T10:33:39;101111.03;;;8.57;100.00
51460;BME280;37534;39.772;2.718;2023-01-27T10:36:27;101114.25;;;8.73;100.00
51460;BME280;37534;39.772;2.718;2023-01-27T10:47:22;101102.66;;;9.10;100.00
51460;BME280;37534;39.772;2.718;2023-01-27T10:50:06;101095.69;;;9.17;100.00
51460;BME280;37534;39.772;2.718;2023-01-27T10:52:40;101100.59;;;9.35;100.00
51460;BME280;37534;39.772;2.718;2023-01-27T11:00:58;101099.66;;;9.39;100.00
51460;BME280;37534;39.772;2.718;2023-01-27T11:03:32;101087.84;;;9.27;100.00
51460;BME280;37534;39.772;2.718;2023-01-27T11:06:06;101082.47;;;9.40;100.00
51460;BME280;37534;39.772;2.718;2023-01-27T11:08:36;101090.28;;;9.37;100.00
51460;BME280;37534;39.772;2.718;2023-01-27T11:11:06;101083.41;;;9.36;100.00
51460;BME280;37534;39.772;2.718;2023-01-27T11:14:02;101085.19;;;9.32;100.00
51460;BME280;37534;39.772;2.718;2023-01-27T11:16:35;101079.34;;;9.22;100.00
51460;BME280;37534;39.772;2.718;2023-01-27T11:19:10;101088.75;;;9.22;100.00
51460;BME280;37534;39.772;2.718;2023-01-27T11:21:37;101074.22;;;9.19;100.00
51460;BME280;37534;39.772;2.718;2023-01-27T11:24:20;101072.44;;;9.24;100.00
51460;BME280;37534;39.772;2.718;2023-01-27T11:26:59;101070.63;;;9.29;100.00
51460;BME280;37534;39.772;2.718;2023-01-27T11:35:11;101065.41;;;9.32;100.00
51460;BME280;37534;39.772;2.718;2023-01-27T11:37:39;101065.34;;;9.39;100.00
51460;BME280;37534;39.772;2.718;2023-01-27T11:40:19;101060.16;;;9.42;100.00
51460;BME280;37534;39.772;2.718;2023-01-27T11:42:46;101056.59;;;9.50;100.00
51460;BME280;37534;39.772;2.718;2023-01-27T11:45:14;101047.94;;;9.53;100.00
51460;BME280;37534;39.772;2.718;2023-01-27T11:47:40;101047.00;;;9.59;100.00
51460;BME280;37534;39.772;2.718;2023-01-27T11:50:13;101024.69;;;9.58;100.00
51460;BME280;37534;39.772;2.718;2023-01-27T11:52:39;101033.88;;;9.73;100.00
51460;BME280;37534;39.772;2.718;2023-01-27T11:55:18;101031.41;;;9.66;100.00
51460;BME280;37534;39.772;2.718;2023-01-27T11:57:49;101030.56;;;9.64;100.00
51460;BME280;37534;39.772;2.718;2023-01-27T12:00:21;101028.84;;;9.66;100.00
51460;BME280;37534;39.772;2.718;2023-01-27T12:03:00;101027.81;;;9.75;100.00
51460;BME280;37534;39.772;2.718;2023-01-27T12:05:33;101019.16;;;9.79;100.00
51460;BME280;37534;39.772;2.718;2023-01-27T12:08:03;101027.44;;;9.97;100.00
51460;BME280;37534;39.772;2.718;2023-01-27T12:10:30;101025.59;;;10.02;100.00
51460;BME280;37534;39.772;2.718;2023-01-27T12:15:47;101027.81;;;9.75;100.00
51460;BME280;37534;39.772;2.718;2023-01-27T12:18:14;101020.59;;;9.46;100.00
51460;BME280;37534;39.772;2.718;2023-01-27T12:20:45;101030.34;;;9.25;100.00
51460;BME280;37534;39.772;2.718;2023-01-27T12:23:50;101030.69;;;9.02;100.00
51460;BME280;37534;39.772;2.718;2023-01-27T12:26:36;101032.88;;;8.69;100.00
51460;BME280;37534;39.772;2.718;2023-01-27T12:29:14;101034.78;;;8.53;100.00
51460;BME280;37534;39.772;2.718;2023-01-27T12:31:47;101030.66;;;8.37;100.00
51460;BME280;37534;39.772;2.718;2023-01-27T12:36:43;101024.03;;;8.17;100.00
51460;BME280;37534;39.772;2.718;2023-01-27T12:41:57;101027.66;;;7.98;100.00
51460;BME280;37534;39.772;2.718;2023-01-27T12:44:26;101024.31;;;7.90;100.00
51460;BME280;37534;39.772;2.718;2023-01-27T12:47:20;101022.66;;;7.83;100.00
51460;BME280;37534;39.772;2.718;2023-01-27T12:49:47;101021.03;;;7.72;100.00
51460;BME280;37534;39.772;2.718;2023-01-27T12:52:20;101021.13;;;7.66;100.00
51460;BME280;37534;39.772;2.718;2023-01-27T12:54:46;101014.25;;;7.65;100.00
51460;BME280;37534;39.772;2.718;2023-01-27T12:57:18;101014.25;;;7.65;100.00
51460;BME280;37534;39.772;2.718;2023-01-27T12:59:50;101015.16;;;7.64;100.00
51460;BME280;37534;39.772;2.718;2023-01-27T13:02:25;101011.66;;;7.73;100.00
51460;BME280;37534;39.772;2.718;2023-01-27T13:04:58;100994.53;;;7.69;100.00
51460;BME280;37534;39.772;2.718;2023-01-27T13:07:28;101007.22;;;7.89;100.00
51460;BME280;37534;39.772;2.718;2023-01-27T13:09:59;101007.16;;;7.92;100.00
51460;BME280;37534;39.772;2.718;2023-01-27T13:12:28;101007.84;;;8.09;100.00
51460;BME280;37534;39.772;2.718;2023-01-27T13:14:57;101008.63;;;8.16;100.00
51460;BME280;37534;39.772;2.718;2023-01-27T13:17:29;101011.09;;;8.25;100.00
51460;BME280;37534;39.772;2.718;2023-01-27T13:20:02;101010.16;;;8.31;100.00
51460;BME280;37534;39.772;2.718;2023-01-27T13:22:34;101006.63;;;8.43;100.00
51460;BME280;37534;39.772;2.718;2023-01-27T13:25:03;101014.09;;;8.61;100.00
51460;BME280;37534;39.772;2.718;2023-01-27T13:27:33;101008.91;;;8.66;100.00
51460;BME280;37534;39.772;2.718;2023-01-27T13:30:11;101016.53;;;8.72;100.00
51460;BME280;37534;39.772;2.718;2023-01-27T13:32:39;101007.19;;;8.65;100.00
51460;BME280;37534;39.772;2.718;2023-01-27T13:35:30;101007.13;;;8.69;100.00
51460;BME280;37534;39.772;2.718;2023-01-27T13:38:07;101017.44;;;8.68;100.00
51460;BME280;37534;39.772;2.718;2023-01-27T13:40:45;101013.28;;;8.57;100.00
51460;BME280;37534;39.772;2.718;2023-01-27T13:43:22;101021.81;;;8.63;100.00
51460;BME280;37534;39.772;2.718;2023-01-27T13:45:55;101011.59;;;8.56;100.00
51460;BME280;37534;39.772;2.718;2023-01-27T13:48:51;101013.13;;;8.70;100.00
51460;BME280;37534;39.772;2.718;2023-01-27T13:51:20;101012.16;;;8.79;100.00
51460;BME280;37534;39.772;2.718;2023-01-27T13:53:58;101017.13;;;8.92;100.00
51460;BME280;37534;39.772;2.718;2023-01-27T13:57:01;101012.63;;;9.07;100.00
51460;BME280;37534;39.772;2.718;2023-01-27T14:00:00;101021.91;;;9.17;100.00
51460;BME280;37534;39.772;2.718;2023-01-27T14:02:55;101025.91;;;9.37;100.00
51460;BME280;37534;39.772;2.718;2023-01-27T14:17:01;101018.06;;;10.39;100.00
51460;BME280;37534;39.772;2.718;2023-01-27T14:19:56;101025.91;;;10.33;100.00
51460;BME280;37534;39.772;2.718;2023-01-27T14:25:17;101026.69;;;10.37;100.00
51460;BME280;37534;39.772;2.718;2023-01-27T14:27:52;101028.31;;;10.42;100.00
51460;BME280;37534;39.772;2.718;2023-01-27T14:30:26;101018.44;;;10.18;100.00
51460;BME280;37534;39.772;2.718;2023-01-27T14:33:09;101027.53;;;10.37;100.00
51460;BME280;37534;39.772;2.718;2023-01-27T14:35:39;101021.69;;;10.29;100.00
51460;BME280;37534;39.772;2.718;2023-01-27T14:51:41;101034.41;;;11.19;100.00